Mount Hamilton, California
Current Conditions -  °F | °C
As of 1:48 PM on Friday 28 Nov 2014 (Local Time) from KRHV Reporting Station
Clear Clear  
Wind Chill: 66°   Ceiling: Unl
Heat Index: 66°   Visibility: 8mi
Dew Point: 45°   Wind: 6mph
Humidity: 46%   Direction: NA
Pressure: 29.93"   Gusts: NA
Location:  37.37°N, 121.71°W
Report Text: KRHV 282148Z VRB05KT 8SM SKC 19/07 A2993
Loading
Personal Weather Stations






























Interactive Weather Map New forecast layout! Learn more

10-Day Weather Forecast

Advertisements
Track Severe Weather on mobile